EmailTwitter


Observations de surface / France / LFBO (07630)

Régions: Québec | Canada | États-Unis | Europe | France | UK | Ailleurs
Station
Affichage
Infos & localisation pour LFBO (07630) | Aide pour décoder les METARs

Observations prises le 2020-09-19 à 05H30 UTC à TOULOUSE/BLAGNAC, FR (LFBO)

Température: 21.0 Celsius

Point de rosée: 18.0 Celsius

Humidité relative: 83%

Indice Humidex: 27.

Vents: Sud-est à 17 km/h ou 9 noeuds.

Pression au niveau moyen de la mer: 101.20 kilopascals.

Observation METAR:

LFBO 190530Z AUTO 14009KT CAVOK 21/18 Q1012 NOSIG=